sensor_id;sensor_type;location;lat;lon;timestamp;temperature;humidity
23301;DHT22;11819;51.394;12.340;2023-03-23T00:01:04;13.20;75.80
23301;DHT22;11819;51.394;12.340;2023-03-23T00:03:30;13.10;75.80
23301;DHT22;11819;51.394;12.340;2023-03-23T00:05:58;13.10;75.80
23301;DHT22;11819;51.394;12.340;2023-03-23T00:08:31;13.10;75.70
23301;DHT22;11819;51.394;12.340;2023-03-23T00:10:57;13.10;75.70
23301;DHT22;11819;51.394;12.340;2023-03-23T00:13:24;13.10;75.60
23301;DHT22;11819;51.394;12.340;2023-03-23T00:15:49;13.10;75.60
23301;DHT22;11819;51.394;12.340;2023-03-23T00:18:18;13.10;75.60
23301;DHT22;11819;51.394;12.340;2023-03-23T00:20:48;13.10;75.60
23301;DHT22;11819;51.394;12.340;2023-03-23T00:23:18;13.10;75.50
23301;DHT22;11819;51.394;12.340;2023-03-23T00:25:49;13.10;75.40
23301;DHT22;11819;51.394;12.340;2023-03-23T00:28:16;13.10;75.40
23301;DHT22;11819;51.394;12.340;2023-03-23T00:30:44;13.10;76.20
23301;DHT22;11819;51.394;12.340;2023-03-23T00:33:11;13.10;75.30
23301;DHT22;11819;51.394;12.340;2023-03-23T00:35:40;13.10;75.10
23301;DHT22;11819;51.394;12.340;2023-03-23T00:38:06;13.10;75.20
23301;DHT22;11819;51.394;12.340;2023-03-23T00:40:31;13.10;75.20
23301;DHT22;11819;51.394;12.340;2023-03-23T00:43:01;13.10;75.10
23301;DHT22;11819;51.394;12.340;2023-03-23T00:45:28;13.10;75.00
23301;DHT22;11819;51.394;12.340;2023-03-23T00:47:54;13.10;75.10
23301;DHT22;11819;51.394;12.340;2023-03-23T00:50:20;13.10;75.10
23301;DHT22;11819;51.394;12.340;2023-03-23T00:52:45;13.10;75.30
23301;DHT22;11819;51.394;12.340;2023-03-23T00:55:11;13.00;75.30
23301;DHT22;11819;51.394;12.340;2023-03-23T00:57:37;13.00;75.40
23301;DHT22;11819;51.394;12.340;2023-03-23T01:00:03;13.00;75.10
23301;DHT22;11819;51.394;12.340;2023-03-23T01:02:35;13.00;74.90
23301;DHT22;11819;51.394;12.340;2023-03-23T01:05:03;13.00;74.80
23301;DHT22;11819;51.394;12.340;2023-03-23T01:07:29;13.00;74.50
23301;DHT22;11819;51.394;12.340;2023-03-23T01:09:56;13.00;74.40
23301;DHT22;11819;51.394;12.340;2023-03-23T01:12:23;13.00;74.30
23301;DHT22;11819;51.394;12.340;2023-03-23T01:14:50;13.00;74.20
23301;DHT22;11819;51.394;12.340;2023-03-23T01:17:16;13.00;74.10
23301;DHT22;11819;51.394;12.340;2023-03-23T01:19:41;13.00;74.00
23301;DHT22;11819;51.394;12.340;2023-03-23T01:22:07;13.00;74.00
23301;DHT22;11819;51.394;12.340;2023-03-23T01:24:33;13.00;74.00
23301;DHT22;11819;51.394;12.340;2023-03-23T01:26:58;13.00;73.90
23301;DHT22;11819;51.394;12.340;2023-03-23T01:29:35;13.00;73.90
23301;DHT22;11819;51.394;12.340;2023-03-23T01:32:01;13.00;73.70
23301;DHT22;11819;51.394;12.340;2023-03-23T01:34:27;13.00;73.90
23301;DHT22;11819;51.394;12.340;2023-03-23T01:36:53;12.90;73.90
23301;DHT22;11819;51.394;12.340;2023-03-23T01:39:19;12.90;74.00
23301;DHT22;11819;51.394;12.340;2023-03-23T01:41:44;12.90;74.30
23301;DHT22;11819;51.394;12.340;2023-03-23T01:47:05;12.90;74.50
23301;DHT22;11819;51.394;12.340;2023-03-23T01:49:38;12.90;74.70
23301;DHT22;11819;51.394;12.340;2023-03-23T01:52:12;12.90;74.80
23301;DHT22;11819;51.394;12.340;2023-03-23T01:54:45;12.90;75.00
23301;DHT22;11819;51.394;12.340;2023-03-23T01:57:14;12.90;75.00
23301;DHT22;11819;51.394;12.340;2023-03-23T01:59:45;12.90;75.10
23301;DHT22;11819;51.394;12.340;2023-03-23T02:02:20;12.90;75.10
23301;DHT22;11819;51.394;12.340;2023-03-23T02:04:47;12.90;75.00
23301;DHT22;11819;51.394;12.340;2023-03-23T02:07:15;12.90;75.10
23301;DHT22;11819;51.394;12.340;2023-03-23T02:09:42;12.90;74.90
23301;DHT22;11819;51.394;12.340;2023-03-23T02:12:09;12.90;74.70
23301;DHT22;11819;51.394;12.340;2023-03-23T02:14:36;12.90;74.40
23301;DHT22;11819;51.394;12.340;2023-03-23T02:17:12;12.90;74.20
23301;DHT22;11819;51.394;12.340;2023-03-23T02:23:19;12.90;74.10
23301;DHT22;11819;51.394;12.340;2023-03-23T02:26:01;12.90;74.10
23301;DHT22;11819;51.394;12.340;2023-03-23T02:31:29;12.90;73.90
23301;DHT22;11819;51.394;12.340;2023-03-23T02:34:23;12.90;73.90
23301;DHT22;11819;51.394;12.340;2023-03-23T02:37:16;12.90;73.70
23301;DHT22;11819;51.394;12.340;2023-03-23T02:39:51;12.90;73.60
23301;DHT22;11819;51.394;12.340;2023-03-23T02:42:24;12.90;73.60
23301;DHT22;11819;51.394;12.340;2023-03-23T02:44:52;12.90;73.50
23301;DHT22;11819;51.394;12.340;2023-03-23T02:47:23;12.90;73.30
23301;DHT22;11819;51.394;12.340;2023-03-23T02:49:52;12.90;73.30
23301;DHT22;11819;51.394;12.340;2023-03-23T02:52:22;12.90;73.20
23301;DHT22;11819;51.394;12.340;2023-03-23T02:54:51;12.90;73.10
23301;DHT22;11819;51.394;12.340;2023-03-23T02:57:19;12.90;73.00
23301;DHT22;11819;51.394;12.340;2023-03-23T02:59:45;12.90;73.00
23301;DHT22;11819;51.394;12.340;2023-03-23T03:02:21;12.90;73.10
23301;DHT22;11819;51.394;12.340;2023-03-23T03:10:25;12.90;73.00
23301;DHT22;11819;51.394;12.340;2023-03-23T03:13:01;13.00;72.70
23301;DHT22;11819;51.394;12.340;2023-03-23T03:18:07;13.10;72.40
23301;DHT22;11819;51.394;12.340;2023-03-23T03:20:38;13.10;72.00
23301;DHT22;11819;51.394;12.340;2023-03-23T03:23:07;13.10;71.70
23301;DHT22;11819;51.394;12.340;2023-03-23T03:25:36;13.10;71.40
23301;DHT22;11819;51.394;12.340;2023-03-23T03:28:03;13.20;71.20
23301;DHT22;11819;51.394;12.340;2023-03-23T03:30:40;13.20;71.00
23301;DHT22;11819;51.394;12.340;2023-03-23T03:33:10;13.20;71.00
23301;DHT22;11819;51.394;12.340;2023-03-23T03:35:38;13.20;70.90
23301;DHT22;11819;51.394;12.340;2023-03-23T03:38:10;13.20;70.80
23301;DHT22;11819;51.394;12.340;2023-03-23T03:40:36;13.30;70.80
23301;DHT22;11819;51.394;12.340;2023-03-23T03:43:03;13.30;70.70
23301;DHT22;11819;51.394;12.340;2023-03-23T03:45:29;13.30;71.00
23301;DHT22;11819;51.394;12.340;2023-03-23T03:47:55;13.30;70.70
23301;DHT22;11819;51.394;12.340;2023-03-23T03:50:21;13.30;70.70
23301;DHT22;11819;51.394;12.340;2023-03-23T03:52:47;13.30;70.70
23301;DHT22;11819;51.394;12.340;2023-03-23T03:55:13;13.30;70.70
23301;DHT22;11819;51.394;12.340;2023-03-23T03:57:42;13.30;70.80
23301;DHT22;11819;51.394;12.340;2023-03-23T04:00:31;13.40;71.00
23301;DHT22;11819;51.394;12.340;2023-03-23T04:02:57;13.30;71.20
23301;DHT22;11819;51.394;12.340;2023-03-23T04:05:55;13.30;71.40
23301;DHT22;11819;51.394;12.340;2023-03-23T04:08:22;13.30;71.70
23301;DHT22;11819;51.394;12.340;2023-03-23T04:10:48;13.20;71.80
23301;DHT22;11819;51.394;12.340;2023-03-23T04:13:18;13.20;72.00
23301;DHT22;11819;51.394;12.340;2023-03-23T04:16:03;13.20;72.20
23301;DHT22;11819;51.394;12.340;2023-03-23T04:18:31;13.10;72.40
23301;DHT22;11819;51.394;12.340;2023-03-23T04:20:58;13.10;72.50
23301;DHT22;11819;51.394;12.340;2023-03-23T04:23:26;13.10;72.70
23301;DHT22;11819;51.394;12.340;2023-03-23T04:25:53;13.10;73.70
23301;DHT22;11819;51.394;12.340;2023-03-23T04:28:25;13.10;73.00
23301;DHT22;11819;51.394;12.340;2023-03-23T04:31:15;13.10;73.20
23301;DHT22;11819;51.394;12.340;2023-03-23T04:33:45;13.10;73.30
23301;DHT22;11819;51.394;12.340;2023-03-23T04:36:12;13.10;73.40
23301;DHT22;11819;51.394;12.340;2023-03-23T04:38:46;13.10;73.50
23301;DHT22;11819;51.394;12.340;2023-03-23T04:41:19;13.10;73.60
23301;DHT22;11819;51.394;12.340;2023-03-23T04:43:52;13.10;73.70
23301;DHT22;11819;51.394;12.340;2023-03-23T04:46:26;13.10;73.80
23301;DHT22;11819;51.394;12.340;2023-03-23T04:48:54;13.10;73.90
23301;DHT22;11819;51.394;12.340;2023-03-23T04:51:25;13.10;73.90
23301;DHT22;11819;51.394;12.340;2023-03-23T04:53:53;13.10;74.00
23301;DHT22;11819;51.394;12.340;2023-03-23T04:56:19;13.10;74.30
23301;DHT22;11819;51.394;12.340;2023-03-23T04:58:46;13.10;74.50
23301;DHT22;11819;51.394;12.340;2023-03-23T05:01:30;13.10;74.70
23301;DHT22;11819;51.394;12.340;2023-03-23T05:04:16;13.00;75.00
23301;DHT22;11819;51.394;12.340;2023-03-23T05:06:50;13.10;75.40
23301;DHT22;11819;51.394;12.340;2023-03-23T05:09:22;13.00;75.70
23301;DHT22;11819;51.394;12.340;2023-03-23T05:11:49;13.00;75.90
23301;DHT22;11819;51.394;12.340;2023-03-23T05:14:14;13.00;76.00
23301;DHT22;11819;51.394;12.340;2023-03-23T05:16:42;13.00;76.20
23301;DHT22;11819;51.394;12.340;2023-03-23T05:19:15;13.00;76.30
23301;DHT22;11819;51.394;12.340;2023-03-23T05:21:41;13.00;76.40
23301;DHT22;11819;51.394;12.340;2023-03-23T05:24:07;13.00;76.40
23301;DHT22;11819;51.394;12.340;2023-03-23T05:26:33;13.00;76.30
23301;DHT22;11819;51.394;12.340;2023-03-23T05:29:05;13.00;76.20
23301;DHT22;11819;51.394;12.340;2023-03-23T05:31:43;13.00;76.00
23301;DHT22;11819;51.394;12.340;2023-03-23T05:34:09;13.10;75.80
23301;DHT22;11819;51.394;12.340;2023-03-23T05:36:45;13.10;75.60
23301;DHT22;11819;51.394;12.340;2023-03-23T05:39:27;13.10;75.40
23301;DHT22;11819;51.394;12.340;2023-03-23T05:42:23;13.10;75.30
23301;DHT22;11819;51.394;12.340;2023-03-23T05:44:58;13.10;75.10
23301;DHT22;11819;51.394;12.340;2023-03-23T05:47:24;13.10;75.00
23301;DHT22;11819;51.394;12.340;2023-03-23T05:49:55;13.10;75.00
23301;DHT22;11819;51.394;12.340;2023-03-23T05:52:22;13.10;75.10
23301;DHT22;11819;51.394;12.340;2023-03-23T05:54:51;13.20;75.20
23301;DHT22;11819;51.394;12.340;2023-03-23T05:57:19;13.10;75.30
23301;DHT22;11819;51.394;12.340;2023-03-23T05:59:52;13.20;75.50
23301;DHT22;11819;51.394;12.340;2023-03-23T06:02:21;13.10;75.60
23301;DHT22;11819;51.394;12.340;2023-03-23T06:04:49;13.10;75.70
23301;DHT22;11819;51.394;12.340;2023-03-23T06:07:21;13.10;75.80
23301;DHT22;11819;51.394;12.340;2023-03-23T06:09:58;13.10;76.00
23301;DHT22;11819;51.394;12.340;2023-03-23T06:12:24;13.10;76.20
23301;DHT22;11819;51.394;12.340;2023-03-23T06:15:05;13.10;76.50
23301;DHT22;11819;51.394;12.340;2023-03-23T06:17:50;13.10;77.10
23301;DHT22;11819;51.394;12.340;2023-03-23T06:20:22;13.10;78.00
23301;DHT22;11819;51.394;12.340;2023-03-23T06:22:50;13.00;78.90
23301;DHT22;11819;51.394;12.340;2023-03-23T06:25:26;13.00;79.60
23301;DHT22;11819;51.394;12.340;2023-03-23T06:27:52;13.00;80.40
23301;DHT22;11819;51.394;12.340;2023-03-23T06:30:17;13.00;81.00
23301;DHT22;11819;51.394;12.340;2023-03-23T06:32:43;12.90;81.50
23301;DHT22;11819;51.394;12.340;2023-03-23T06:35:13;12.80;82.10
23301;DHT22;11819;51.394;12.340;2023-03-23T06:38:00;12.80;82.50
23301;DHT22;11819;51.394;12.340;2023-03-23T06:40:35;12.80;83.10
23301;DHT22;11819;51.394;12.340;2023-03-23T06:43:04;12.70;83.30
23301;DHT22;11819;51.394;12.340;2023-03-23T06:45:58;12.70;83.70
23301;DHT22;11819;51.394;12.340;2023-03-23T06:48:40;12.70;84.10
23301;DHT22;11819;51.394;12.340;2023-03-23T06:51:07;12.70;84.40
23301;DHT22;11819;51.394;12.340;2023-03-23T06:53:35;12.70;84.70
23301;DHT22;11819;51.394;12.340;2023-03-23T06:56:00;12.70;85.10
23301;DHT22;11819;51.394;12.340;2023-03-23T06:58:28;12.70;85.40
23301;DHT22;11819;51.394;12.340;2023-03-23T07:00:57;12.60;85.50
23301;DHT22;11819;51.394;12.340;2023-03-23T07:03:28;12.70;85.70
23301;DHT22;11819;51.394;12.340;2023-03-23T07:05:55;12.70;85.90
23301;DHT22;11819;51.394;12.340;2023-03-23T07:08:25;12.70;86.10
23301;DHT22;11819;51.394;12.340;2023-03-23T07:10:56;12.70;86.20
23301;DHT22;11819;51.394;12.340;2023-03-23T07:13:26;12.70;86.20
23301;DHT22;11819;51.394;12.340;2023-03-23T07:15:59;12.70;86.40
23301;DHT22;11819;51.394;12.340;2023-03-23T07:18:25;12.70;86.50
23301;DHT22;11819;51.394;12.340;2023-03-23T07:20:52;12.70;86.50
23301;DHT22;11819;51.394;12.340;2023-03-23T07:23:21;12.70;85.90
23301;DHT22;11819;51.394;12.340;2023-03-23T07:25:56;12.70;85.80
23301;DHT22;11819;51.394;12.340;2023-03-23T07:28:26;12.70;85.00
23301;DHT22;11819;51.394;12.340;2023-03-23T07:30:56;12.80;84.90
23301;DHT22;11819;51.394;12.340;2023-03-23T07:33:21;12.90;84.80
23301;DHT22;11819;51.394;12.340;2023-03-23T07:35:48;12.90;84.80
23301;DHT22;11819;51.394;12.340;2023-03-23T07:38:16;12.90;85.00
23301;DHT22;11819;51.394;12.340;2023-03-23T07:40:46;12.90;85.10
23301;DHT22;11819;51.394;12.340;2023-03-23T07:43:15;13.00;85.10
23301;DHT22;11819;51.394;12.340;2023-03-23T07:45:59;13.00;85.40
23301;DHT22;11819;51.394;12.340;2023-03-23T07:48:38;13.00;85.40
23301;DHT22;11819;51.394;12.340;2023-03-23T07:51:05;13.00;85.60
23301;DHT22;11819;51.394;12.340;2023-03-23T07:53:31;13.00;85.40
23301;DHT22;11819;51.394;12.340;2023-03-23T07:56:11;13.00;85.60
23301;DHT22;11819;51.394;12.340;2023-03-23T07:58:52;13.00;85.90
23301;DHT22;11819;51.394;12.340;2023-03-23T08:01:18;13.00;85.90
23301;DHT22;11819;51.394;12.340;2023-03-23T08:03:59;13.00;85.90
23301;DHT22;11819;51.394;12.340;2023-03-23T08:06:35;13.00;86.20
23301;DHT22;11819;51.394;12.340;2023-03-23T08:09:33;13.00;86.60
23301;DHT22;11819;51.394;12.340;2023-03-23T08:12:16;13.10;87.10
23301;DHT22;11819;51.394;12.340;2023-03-23T08:15:13;13.10;87.30
23301;DHT22;11819;51.394;12.340;2023-03-23T08:17:50;13.10;87.50
23301;DHT22;11819;51.394;12.340;2023-03-23T08:20:35;13.10;87.80
23301;DHT22;11819;51.394;12.340;2023-03-23T08:23:04;13.10;88.00
23301;DHT22;11819;51.394;12.340;2023-03-23T08:25:35;13.10;88.10
23301;DHT22;11819;51.394;12.340;2023-03-23T08:28:18;13.10;88.20
23301;DHT22;11819;51.394;12.340;2023-03-23T08:31:12;13.10;88.50
23301;DHT22;11819;51.394;12.340;2023-03-23T08:33:57;13.10;88.70
23301;DHT22;11819;51.394;12.340;2023-03-23T08:36:49;13.10;89.00
23301;DHT22;11819;51.394;12.340;2023-03-23T08:39:33;13.10;89.10
23301;DHT22;11819;51.394;12.340;2023-03-23T08:42:16;13.20;89.30
23301;DHT22;11819;51.394;12.340;2023-03-23T08:44:56;13.20;89.40
23301;DHT22;11819;51.394;12.340;2023-03-23T08:47:46;13.30;89.40
23301;DHT22;11819;51.394;12.340;2023-03-23T08:50:31;13.40;89.00
23301;DHT22;11819;51.394;12.340;2023-03-23T08:53:22;13.50;88.30
23301;DHT22;11819;51.394;12.340;2023-03-23T08:55:50;13.60;88.20
23301;DHT22;11819;51.394;12.340;2023-03-23T08:58:43;13.60;87.70
23301;DHT22;11819;51.394;12.340;2023-03-23T09:01:16;13.70;86.70
23301;DHT22;11819;51.394;12.340;2023-03-23T09:04:20;13.80;86.20
23301;DHT22;11819;51.394;12.340;2023-03-23T09:06:49;13.90;86.00
23301;DHT22;11819;51.394;12.340;2023-03-23T09:09:15;14.00;86.20
23301;DHT22;11819;51.394;12.340;2023-03-23T09:11:41;14.00;85.70
23301;DHT22;11819;51.394;12.340;2023-03-23T09:14:07;14.00;85.30
23301;DHT22;11819;51.394;12.340;2023-03-23T09:16:34;14.10;85.10
23301;DHT22;11819;51.394;12.340;2023-03-23T09:19:00;14.10;84.60
23301;DHT22;11819;51.394;12.340;2023-03-23T09:21:27;14.20;83.70
23301;DHT22;11819;51.394;12.340;2023-03-23T09:23:53;14.30;83.70
23301;DHT22;11819;51.394;12.340;2023-03-23T09:26:22;14.30;83.40
23301;DHT22;11819;51.394;12.340;2023-03-23T09:28:47;14.40;82.20
23301;DHT22;11819;51.394;12.340;2023-03-23T09:31:13;14.40;82.10
23301;DHT22;11819;51.394;12.340;2023-03-23T09:33:39;14.50;81.50
23301;DHT22;11819;51.394;12.340;2023-03-23T09:36:05;14.50;81.50
23301;DHT22;11819;51.394;12.340;2023-03-23T09:38:33;14.60;81.00
23301;DHT22;11819;51.394;12.340;2023-03-23T09:44:03;14.60;80.60
23301;DHT22;11819;51.394;12.340;2023-03-23T09:46:52;14.70;80.10
23301;DHT22;11819;51.394;12.340;2023-03-23T09:49:33;14.70;80.00
23301;DHT22;11819;51.394;12.340;2023-03-23T09:52:09;14.80;79.20
23301;DHT22;11819;51.394;12.340;2023-03-23T09:54:41;14.80;79.50
23301;DHT22;11819;51.394;12.340;2023-03-23T09:57:16;14.80;78.80
23301;DHT22;11819;51.394;12.340;2023-03-23T10:02:17;14.90;77.60
23301;DHT22;11819;51.394;12.340;2023-03-23T10:04:55;15.00;77.20
23301;DHT22;11819;51.394;12.340;2023-03-23T10:07:23;15.00;77.30
23301;DHT22;11819;51.394;12.340;2023-03-23T10:10:01;15.10;77.50
23301;DHT22;11819;51.394;12.340;2023-03-23T10:15:12;15.10;76.80
23301;DHT22;11819;51.394;12.340;2023-03-23T10:20:32;15.10;75.40
23301;DHT22;11819;51.394;12.340;2023-03-23T10:26:16;15.20;74.20
23301;DHT22;11819;51.394;12.340;2023-03-23T10:28:48;15.20;74.20
23301;DHT22;11819;51.394;12.340;2023-03-23T10:31:21;15.20;74.60
23301;DHT22;11819;51.394;12.340;2023-03-23T10:33:50;15.20;75.20
23301;DHT22;11819;51.394;12.340;2023-03-23T10:36:55;15.30;74.70
23301;DHT22;11819;51.394;12.340;2023-03-23T10:39:24;15.30;72.90
23301;DHT22;11819;51.394;12.340;2023-03-23T10:41:52;15.30;73.60
23301;DHT22;11819;51.394;12.340;2023-03-23T10:44:20;15.40;72.10
23301;DHT22;11819;51.394;12.340;2023-03-23T10:46:55;15.40;71.70
23301;DHT22;11819;51.394;12.340;2023-03-23T10:49:25;15.40;71.20
23301;DHT22;11819;51.394;12.340;2023-03-23T10:52:13;15.40;71.90
23301;DHT22;11819;51.394;12.340;2023-03-23T10:54:49;15.40;71.30
23301;DHT22;11819;51.394;12.340;2023-03-23T10:57:28;15.40;71.20
23301;DHT22;11819;51.394;12.340;2023-03-23T11:00:25;15.40;71.20
23301;DHT22;11819;51.394;12.340;2023-03-23T11:05:41;15.40;69.50
23301;DHT22;11819;51.394;12.340;2023-03-23T11:08:13;15.40;67.70
23301;DHT22;11819;51.394;12.340;2023-03-23T11:10:52;15.40;68.30
23301;DHT22;11819;51.394;12.340;2023-03-23T11:13:19;15.40;67.70
23301;DHT22;11819;51.394;12.340;2023-03-23T11:15:47;15.40;66.90
23301;DHT22;11819;51.394;12.340;2023-03-23T11:18:20;15.50;67.20
23301;DHT22;11819;51.394;12.340;2023-03-23T11:20:49;15.50;67.00
23301;DHT22;11819;51.394;12.340;2023-03-23T11:23:22;15.50;67.00
23301;DHT22;11819;51.394;12.340;2023-03-23T11:28:45;15.40;67.90
23301;DHT22;11819;51.394;12.340;2023-03-23T11:31:11;15.40;68.10
23301;DHT22;11819;51.394;12.340;2023-03-23T11:36:12;15.30;68.20
23301;DHT22;11819;51.394;12.340;2023-03-23T11:38:37;15.30;68.80
23301;DHT22;11819;51.394;12.340;2023-03-23T11:41:12;15.30;69.20
23301;DHT22;11819;51.394;12.340;2023-03-23T11:43:40;15.30;69.30
23301;DHT22;11819;51.394;12.340;2023-03-23T11:46:32;15.30;69.50
23301;DHT22;11819;51.394;12.340;2023-03-23T11:49:10;15.30;69.90
23301;DHT22;11819;51.394;12.340;2023-03-23T11:51:51;15.40;69.50
23301;DHT22;11819;51.394;12.340;2023-03-23T11:54:36;15.40;69.70
23301;DHT22;11819;51.394;12.340;2023-03-23T11:57:10;15.40;69.60
23301;DHT22;11819;51.394;12.340;2023-03-23T11:59:37;15.40;70.10
23301;DHT22;11819;51.394;12.340;2023-03-23T12:02:23;15.40;70.40
23301;DHT22;11819;51.394;12.340;2023-03-23T12:05:10;15.40;70.40
23301;DHT22;11819;51.394;12.340;2023-03-23T12:07:46;15.40;70.60
23301;DHT22;11819;51.394;12.340;2023-03-23T12:10:18;15.40;70.80
23301;DHT22;11819;51.394;12.340;2023-03-23T12:13:24;15.50;71.10
23301;DHT22;11819;51.394;12.340;2023-03-23T12:16:00;15.50;70.50
23301;DHT22;11819;51.394;12.340;2023-03-23T12:18:43;15.50;70.60
23301;DHT22;11819;51.394;12.340;2023-03-23T12:21:42;15.50;71.10
23301;DHT22;11819;51.394;12.340;2023-03-23T12:27:19;15.50;70.50
23301;DHT22;11819;51.394;12.340;2023-03-23T12:29:59;15.40;70.50
23301;DHT22;11819;51.394;12.340;2023-03-23T12:32:44;15.50;70.80
23301;DHT22;11819;51.394;12.340;2023-03-23T12:35:29;15.50;71.10
23301;DHT22;11819;51.394;12.340;2023-03-23T12:38:08;15.50;70.70
23301;DHT22;11819;51.394;12.340;2023-03-23T12:40:50;15.70;70.70
23301;DHT22;11819;51.394;12.340;2023-03-23T12:43:36;15.80;70.10
23301;DHT22;11819;51.394;12.340;2023-03-23T12:49:07;15.90;69.50
23301;DHT22;11819;51.394;12.340;2023-03-23T12:54:42;16.10;69.50
23301;DHT22;11819;51.394;12.340;2023-03-23T12:57:21;16.30;68.20
23301;DHT22;11819;51.394;12.340;2023-03-23T13:02:50;16.50;65.90
23301;DHT22;11819;51.394;12.340;2023-03-23T13:10:46;16.40;66.40
23301;DHT22;11819;51.394;12.340;2023-03-23T13:13:25;16.30;65.20
23301;DHT22;11819;51.394;12.340;2023-03-23T13:18:49;16.30;64.50
23301;DHT22;11819;51.394;12.340;2023-03-23T13:21:25;16.20;64.30
23301;DHT22;11819;51.394;12.340;2023-03-23T13:23:58;16.20;65.00
23301;DHT22;11819;51.394;12.340;2023-03-23T13:26:25;16.10;65.30
23301;DHT22;11819;51.394;12.340;2023-03-23T13:31:30;16.00;64.80
23301;DHT22;11819;51.394;12.340;2023-03-23T13:34:18;16.00;64.90
23301;DHT22;11819;51.394;12.340;2023-03-23T13:36:55;16.00;65.00
23301;DHT22;11819;51.394;12.340;2023-03-23T13:39:26;15.90;65.50
23301;DHT22;11819;51.394;12.340;2023-03-23T13:45:04;15.90;65.70
23301;DHT22;11819;51.394;12.340;2023-03-23T13:47:35;15.80;66.20
23301;DHT22;11819;51.394;12.340;2023-03-23T13:55:38;15.70;67.40
23301;DHT22;11819;51.394;12.340;2023-03-23T14:16:26;15.60;69.80
23301;DHT22;11819;51.394;12.340;2023-03-23T14:18:58;15.60;70.20
23301;DHT22;11819;51.394;12.340;2023-03-23T14:21:32;15.60;70.10
23301;DHT22;11819;51.394;12.340;2023-03-23T14:24:15;15.60;69.70
23301;DHT22;11819;51.394;12.340;2023-03-23T14:26:41;15.60;69.80
23301;DHT22;11819;51.394;12.340;2023-03-23T14:29:13;15.60;69.40
23301;DHT22;11819;51.394;12.340;2023-03-23T14:31:40;15.60;69.70
23301;DHT22;11819;51.394;12.340;2023-03-23T14:34:13;15.60;69.10
23301;DHT22;11819;51.394;12.340;2023-03-23T14:36:40;15.50;69.00
23301;DHT22;11819;51.394;12.340;2023-03-23T14:41:38;15.50;69.70
23301;DHT22;11819;51.394;12.340;2023-03-23T14:44:08;15.50;69.60
23301;DHT22;11819;51.394;12.340;2023-03-23T14:46:34;15.50;70.00
23301;DHT22;11819;51.394;12.340;2023-03-23T14:49:04;15.50;70.10
23301;DHT22;11819;51.394;12.340;2023-03-23T14:51:31;15.40;70.40
23301;DHT22;11819;51.394;12.340;2023-03-23T14:53:59;15.40;70.60
23301;DHT22;11819;51.394;12.340;2023-03-23T14:56:33;15.40;71.00
23301;DHT22;11819;51.394;12.340;2023-03-23T14:59:04;15.40;71.20
23301;DHT22;11819;51.394;12.340;2023-03-23T15:01:33;15.30;71.30
23301;DHT22;11819;51.394;12.340;2023-03-23T15:04:18;15.30;71.50
23301;DHT22;11819;51.394;12.340;2023-03-23T15:06:51;15.30;71.70
23301;DHT22;11819;51.394;12.340;2023-03-23T15:09:21;15.30;72.00
23301;DHT22;11819;51.394;12.340;2023-03-23T15:11:57;15.30;72.30
23301;DHT22;11819;51.394;12.340;2023-03-23T15:17:21;15.20;72.90
23301;DHT22;11819;51.394;12.340;2023-03-23T15:19:48;15.20;73.20
23301;DHT22;11819;51.394;12.340;2023-03-23T15:24:44;15.10;73.90
23301;DHT22;11819;51.394;12.340;2023-03-23T15:27:23;15.10;74.10
23301;DHT22;11819;51.394;12.340;2023-03-23T15:30:10;15.10;74.40
23301;DHT22;11819;51.394;12.340;2023-03-23T15:32:42;15.10;74.30
23301;DHT22;11819;51.394;12.340;2023-03-23T15:35:17;15.10;74.40
23301;DHT22;11819;51.394;12.340;2023-03-23T15:37:48;15.10;74.40
23301;DHT22;11819;51.394;12.340;2023-03-23T15:40:20;15.10;74.50
23301;DHT22;11819;51.394;12.340;2023-03-23T15:42:46;15.10;74.60
23301;DHT22;11819;51.394;12.340;2023-03-23T15:50:17;15.10;74.70
23301;DHT22;11819;51.394;12.340;2023-03-23T15:52:44;15.10;74.90
23301;DHT22;11819;51.394;12.340;2023-03-23T15:55:20;15.10;75.00
23301;DHT22;11819;51.394;12.340;2023-03-23T15:57:47;15.10;75.10
23301;DHT22;11819;51.394;12.340;2023-03-23T16:00:14;15.10;74.90
23301;DHT22;11819;51.394;12.340;2023-03-23T16:02:40;15.10;74.90
23301;DHT22;11819;51.394;12.340;2023-03-23T16:05:13;15.10;74.90
23301;DHT22;11819;51.394;12.340;2023-03-23T16:07:38;15.10;74.90
23301;DHT22;11819;51.394;12.340;2023-03-23T16:10:05;15.10;75.00
23301;DHT22;11819;51.394;12.340;2023-03-23T16:12:32;15.10;75.10
23301;DHT22;11819;51.394;12.340;2023-03-23T16:14:58;15.10;75.40
23301;DHT22;11819;51.394;12.340;2023-03-23T16:17:24;15.10;75.30
23301;DHT22;11819;51.394;12.340;2023-03-23T16:19:50;15.10;75.30
23301;DHT22;11819;51.394;12.340;2023-03-23T16:22:16;15.10;75.70
23301;DHT22;11819;51.394;12.340;2023-03-23T16:24:41;15.10;76.00
23301;DHT22;11819;51.394;12.340;2023-03-23T16:27:10;15.10;76.40
23301;DHT22;11819;51.394;12.340;2023-03-23T16:29:36;15.00;76.50
23301;DHT22;11819;51.394;12.340;2023-03-23T16:32:02;15.00;76.80
23301;DHT22;11819;51.394;12.340;2023-03-23T16:34:28;14.90;77.00
23301;DHT22;11819;51.394;12.340;2023-03-23T16:36:57;14.90;77.10
23301;DHT22;11819;51.394;12.340;2023-03-23T16:39:22;14.90;77.40
23301;DHT22;11819;51.394;12.340;2023-03-23T16:41:48;14.90;77.60
23301;DHT22;11819;51.394;12.340;2023-03-23T16:44:14;14.80;77.60
23301;DHT22;11819;51.394;12.340;2023-03-23T16:46:40;14.80;77.70
23301;DHT22;11819;51.394;12.340;2023-03-23T16:49:06;14.80;77.60
23301;DHT22;11819;51.394;12.340;2023-03-23T16:51:31;14.80;77.70
23301;DHT22;11819;51.394;12.340;2023-03-23T16:53:57;14.80;77.50
23301;DHT22;11819;51.394;12.340;2023-03-23T16:56:22;14.80;77.40
23301;DHT22;11819;51.394;12.340;2023-03-23T16:58:48;14.70;77.20
23301;DHT22;11819;51.394;12.340;2023-03-23T17:01:15;14.70;77.20
23301;DHT22;11819;51.394;12.340;2023-03-23T17:03:40;14.70;77.30
23301;DHT22;11819;51.394;12.340;2023-03-23T17:06:07;14.70;77.30
23301;DHT22;11819;51.394;12.340;2023-03-23T17:08:33;14.70;77.20
23301;DHT22;11819;51.394;12.340;2023-03-23T17:10:58;14.70;77.20
23301;DHT22;11819;51.394;12.340;2023-03-23T17:13:24;14.70;77.20
23301;DHT22;11819;51.394;12.340;2023-03-23T17:15:53;14.70;77.30
23301;DHT22;11819;51.394;12.340;2023-03-23T17:18:20;14.60;77.30
23301;DHT22;11819;51.394;12.340;2023-03-23T17:20:46;14.60;77.60
23301;DHT22;11819;51.394;12.340;2023-03-23T17:23:11;14.50;77.40
23301;DHT22;11819;51.394;12.340;2023-03-23T17:25:37;14.50;77.40
23301;DHT22;11819;51.394;12.340;2023-03-23T17:28:02;14.50;77.50